Time;durP1;ratioP1;P1;durP2;ratioP2;P2;SDS_P1;SDS_P2;PMS_P1;PMS_P2;Temp;Humidity;BMP_temperature;BMP_pressure;BME280_temperature;BME280_humidity;BME280_pressure;Samples;Min_cycle;Max_cycle;Signal;HPM_P1;HPM_P2
2022/02/08 00:04:42;;;;;;;15.32;5.60;;;-1.00;99.90;;;;;;20905937;28;20037;-77
2022/02/08 00:14:43;;;;;;;16.10;4.55;;;-1.00;99.90;;;;;;20919446;28;20028;-78
2022/02/08 00:24:44;;;;;;;13.00;4.63;;;-1.00;99.90;;;;;;20918371;28;20437;-78
2022/02/08 00:34:45;;;;;;;15.63;5.20;;;-0.70;99.90;;;;;;20917852;28;20021;-78
2022/02/08 00:44:51;;;;;;;20.77;4.20;;;-0.50;99.90;;;;;;20986264;23;20408;-78
2022/02/08 00:54:52;;;;;;;13.32;4.53;;;-0.50;99.90;;;;;;20986323;28;20060;-78
2022/02/08 01:04:58;;;;;;;16.98;5.18;;;-0.70;99.90;;;;;;20986236;28;20036;-78
2022/02/08 01:14:59;;;;;;;13.82;4.00;;;-0.50;99.90;;;;;;20984332;28;20036;-78
2022/02/08 01:25:00;;;;;;;8.52;3.35;;;-0.30;99.90;;;;;;20982455;28;20289;-78
2022/02/08 01:55:51;;;;;;;8.20;3.75;;;0.10;99.90;;;;;;20981224;28;20033;-78
2022/02/08 02:05:54;;;;;;;16.00;4.70;;;0.00;99.90;;;;;;20979302;28;20032;-78
2022/02/08 02:15:58;;;;;;;13.65;4.28;;;0.10;99.90;;;;;;20995464;28;20025;-78
2022/02/08 02:25:59;;;;;;;12.30;4.30;;;0.10;99.90;;;;;;20978794;28;20115;-78
2022/02/08 02:36:01;;;;;;;10.00;3.38;;;0.00;99.90;;;;;;20977971;28;20032;-78
2022/02/08 02:46:04;;;;;;;17.88;4.35;;;-0.10;99.90;;;;;;20978915;28;20091;-78
2022/02/08 02:56:06;;;;;;;10.45;3.83;;;-0.30;99.90;;;;;;20977043;28;20029;-78
2022/02/08 03:26:47;;;;;;;9.35;3.60;;;-0.20;99.90;;;;;;20978225;28;20048;-78
2022/02/08 03:36:50;;;;;;;8.98;3.33;;;-0.40;99.90;;;;;;20961209;28;20033;-78
2022/02/08 03:46:52;;;;;;;9.25;4.53;;;-0.80;99.90;;;;;;20972157;28;20032;-78
2022/02/08 03:56:54;;;;;;;9.98;3.88;;;-0.80;99.90;;;;;;20992687;28;20036;-79
2022/02/08 04:06:59;;;;;;;10.95;4.00;;;-1.10;99.90;;;;;;20976420;28;20073;-79
2022/02/08 04:48:10;;;;;;;10.50;2.83;;;-1.60;99.90;;;;;;21005691;28;20032;-78
2022/02/08 04:58:20;;;;;;;11.48;4.03;;;-1.40;99.90;;;;;;21009041;28;20032;-78
2022/02/08 05:49:44;;;;;;;6.55;3.05;;;-1.00;99.90;;;;;;20899656;28;20037;-79
2022/02/08 05:59:45;;;;;;;10.82;4.15;;;-1.40;99.90;;;;;;20860120;28;20044;-79
2022/02/08 06:09:49;;;;;;;11.77;4.32;;;-1.50;99.90;;;;;;20893764;28;20040;-78
2022/02/08 06:19:50;;;;;;;20.33;5.28;;;-1.40;99.90;;;;;;20921220;28;20029;-77
2022/02/08 06:29:51;;;;;;;13.40;4.10;;;-1.20;99.90;;;;;;20917909;28;20481;-77
2022/02/08 06:39:52;;;;;;;12.63;5.25;;;-1.00;99.90;;;;;;20887005;22;20057;-76
2022/02/08 06:49:53;;;;;;;6.85;2.75;;;-1.00;99.90;;;;;;20756910;28;20033;-75
2022/02/08 07:00:00;;;;;;;12.68;3.40;;;-1.40;99.90;;;;;;20764952;28;20500;-76
2022/02/08 07:10:03;;;;;;;9.70;3.83;;;-1.20;99.90;;;;;;20752177;28;20037;-76
2022/02/08 07:20:05;;;;;;;36.03;18.15;;;-0.80;99.90;;;;;;20769414;28;20061;-76
2022/02/08 07:30:11;;;;;;;19.45;8.07;;;-0.50;99.90;;;;;;20782424;28;20057;-76
2022/02/08 07:40:27;;;;;;;17.13;5.32;;;1.00;99.90;;;;;;20777186;28;20038;-75
2022/02/08 07:50:28;;;;;;;17.77;6.40;;;2.60;99.90;;;;;;20767572;28;20064;-75
2022/02/08 08:00:29;;;;;;;11.82;4.78;;;2.00;99.90;;;;;;20786813;28;20516;-74
2022/02/08 08:10:31;;;;;;;8.13;3.58;;;1.70;99.90;;;;;;20792099;28;20046;-76
2022/02/08 08:20:32;;;;;;;15.40;6.28;;;1.80;99.90;;;;;;20793829;28;20030;-74
2022/02/08 08:30:33;;;;;;;23.85;9.55;;;2.40;99.90;;;;;;20811620;28;20033;-75
2022/02/08 09:00:57;;;;;;;15.52;5.65;;;4.90;99.90;;;;;;20768487;28;20100;-73
2022/02/08 09:11:07;;;;;;;8.07;3.50;;;6.20;99.90;;;;;;20754926;28;20393;-74
2022/02/08 09:31:30;;;;;;;18.23;6.30;;;7.40;99.90;;;;;;20749629;28;20045;-73
2022/02/08 09:41:34;;;;;;;9.93;4.13;;;8.90;99.90;;;;;;20747871;28;20036;-74
2022/02/08 09:51:38;;;;;;;13.27;3.83;;;9.10;99.90;;;;;;20748040;28;20044;-74
2022/02/08 10:01:50;;;;;;;13.93;4.13;;;9.00;99.90;;;;;;20745647;28;20045;-73
2022/02/08 10:11:58;;;;;;;7.03;3.33;;;8.80;99.90;;;;;;20746123;28;20065;-74
2022/02/08 10:22:10;;;;;;;13.88;3.65;;;9.50;99.90;;;;;;20746274;28;20423;-74
2022/02/08 10:42:42;;;;;;;7.25;2.17;;;10.70;99.90;;;;;;20714297;28;20196;-74
2022/02/08 10:52:44;;;;;;;3.95;1.85;;;11.20;99.90;;;;;;20744188;28;20021;-74
2022/02/08 11:02:48;;;;;;;10.50;1.85;;;12.40;99.90;;;;;;20744146;28;20084;-73
2022/02/08 11:13:33;;;;;;;7.32;1.77;;;12.00;99.90;;;;;;20743693;28;20384;-72
2022/02/08 11:23:32;;;;;;;8.52;1.80;;;11.90;99.90;;;;;;20739423;28;20073;-74
2022/02/08 11:33:49;;;;;;;6.72;1.40;;;12.70;99.90;;;;;;20743881;28;20038;-75
2022/02/08 14:07:44;;;;;;;1.90;0.77;;;13.00;89.10;;;;;;20847041;28;20457;-82
2022/02/08 15:09:12;;;;;;;3.63;1.40;;;14.40;91.20;;;;;;20884441;28;20037;-83
2022/02/08 15:19:15;;;;;;;8.10;2.13;;;14.70;91.50;;;;;;20848008;28;20033;-82
2022/02/08 15:29:16;;;;;;;3.42;1.70;;;14.80;94.40;;;;;;20800619;28;20042;-82
2022/02/08 15:39:17;;;;;;;2.83;0.90;;;16.00;94.20;;;;;;20808193;28;20819;-81
2022/02/08 15:49:18;;;;;;;1.73;0.93;;;15.40;90.60;;;;;;20793639;28;20491;-82
2022/02/08 16:30:18;;;;;;;4.73;1.70;;;12.20;96.80;;;;;;20794314;28;20029;-84
2022/02/08 17:00:30;;;;;;;4.23;1.53;;;6.60;99.90;;;;;;20795649;28;20056;-82
2022/02/08 17:10:35;;;;;;;5.85;1.85;;;6.30;99.90;;;;;;20784326;28;20037;-84
2022/02/08 17:51:34;;;;;;;5.68;2.40;;;4.60;99.90;;;;;;20874855;28;20051;-85
2022/02/08 18:01:36;;;;;;;2.60;1.60;;;4.40;99.90;;;;;;20807262;28;20140;-85
2022/02/08 18:11:39;;;;;;;11.15;1.88;;;3.90;99.90;;;;;;20801606;28;20044;-86
2022/02/08 18:21:52;;;;;;;3.28;1.88;;;3.70;99.90;;;;;;20757311;28;20065;-85
2022/02/08 19:23:14;;;;;;;4.22;2.08;;;3.60;99.90;;;;;;20829114;28;20790;-74
2022/02/08 19:33:15;;;;;;;;;;;3.10;99.90;;;;;;20812937;28;20040;-74
2022/02/08 19:43:16;;;;;;;6.38;2.75;;;2.70;99.90;;;;;;20894838;28;20374;-73
2022/02/08 19:53:17;;;;;;;8.02;2.10;;;2.70;99.90;;;;;;20852700;28;20086;-73
2022/02/08 20:03:18;;;;;;;7.18;3.08;;;2.60;99.90;;;;;;20822879;28;20029;-73
2022/02/08 20:13:24;;;;;;;10.50;4.80;;;2.40;99.90;;;;;;20839197;28;20070;-74
2022/02/08 20:23:27;;;;;;;5.18;2.60;;;2.70;99.90;;;;;;20843002;28;20182;-73
2022/02/08 20:33:27;;;;;;;3.05;2.17;;;2.40;99.90;;;;;;20854367;28;20039;-73
2022/02/08 20:43:32;;;;;;;6.47;2.75;;;2.50;99.90;;;;;;20857463;28;20042;-73
2022/02/08 20:53:37;;;;;;;8.75;2.80;;;2.20;99.90;;;;;;20848608;28;20072;-74
2022/02/08 21:03:51;;;;;;;6.30;3.00;;;2.50;99.90;;;;;;20851688;28;20592;-73
2022/02/08 21:14:04;;;;;;;3.92;1.83;;;2.60;99.90;;;;;;20865266;28;20064;-73
2022/02/08 21:24:06;;;;;;;15.73;4.38;;;2.50;99.90;;;;;;20894804;28;20041;-73
2022/02/08 21:54:31;;;;;;;4.38;1.90;;;2.10;99.90;;;;;;20893136;28;20056;-72
2022/02/08 22:04:32;;;;;;;2.30;1.67;;;2.20;99.90;;;;;;20905291;28;20041;-74
2022/02/08 22:25:26;;;;;;;8.05;2.33;;;2.10;99.90;;;;;;20873604;28;20403;-72
2022/02/08 22:45:24;;;;;;;5.88;2.35;;;2.10;99.90;;;;;;20872904;28;20492;-75
2022/02/08 22:55:29;;;;;;;7.18;3.22;;;1.70;99.90;;;;;;20876884;28;20030;-74
2022/02/08 23:05:31;;;;;;;5.30;3.00;;;1.70;99.90;;;;;;20875125;28;20024;-72
2022/02/08 23:15:47;;;;;;;4.32;2.22;;;1.60;99.90;;;;;;20873632;28;20384;-75
2022/02/08 23:46:26;;;;;;;8.32;4.00;;;0.70;99.90;;;;;;20941793;28;20068;-75
2022/02/08 23:56:40;;;;;;;7.90;4.05;;;0.90;99.90;;;;;;20929742;28;20665;-75
